»·PEaware :: N511AT KMYF-KSNA

N511AT :: KMYF-KSNA

FLIGHT INFORMATION

Flight Status: Arrived
Operator: Privately registered:
United States
More flights under this callsign
Pilot: Raymond W. (27419)
Aircraft: Unknown
(SF50)
More flights by this aircraft type
Origin: KMYF Montgomery
United States
Destination: KSNA John Wayne-Orange Co
United States
More flights between these airports :: More routes between these airports
Route: CWARD2 SLI
File this flight plan on PilotEdge
Remarks: tec route sanP3
Altitude:
(Current/Filed)
8,000ft
Speed:
(Current/Filed)
230kts
Departed: 09-Feb-20 10:07 AM
Arrived: 09-Feb-20 10:46 AM
Distance/Time
Traveled:
63nm/0:39
Distance/Time
To Go:
Arrived

Flight Plot

Page will automatically refresh every two minutes.

Flight plan parsing failed; only flown route is shown


Map Options




Map Legend


Flown Route
Filed Route
Departure Airport
Arrival Airport
Navaid (VOR, NDB)
Fix

Horizontal Profiles

Position Reports

Time Latitude Longitude Heading Altitude Ground
Speed
09-Feb-20 09:54 32.814666 -117.142426 349 416ft 0kts
09-Feb-20 09:55 32.814666 -117.142426 349 416ft 0kts
09-Feb-20 09:56 32.814666 -117.142426 349 416ft 0kts
09-Feb-20 09:57 32.814666 -117.142426 349 416ft 0kts
09-Feb-20 09:58 32.814666 -117.142426 349 416ft 0kts
09-Feb-20 09:59 32.814666 -117.142426 349 416ft 0kts
09-Feb-20 10:00 32.814666 -117.142426 349 416ft 0kts
09-Feb-20 10:01 32.814666 -117.142426 349 416ft 0kts
09-Feb-20 10:02 32.814666 -117.142426 349 416ft 0kts
09-Feb-20 10:03 32.814666 -117.142426 349 416ft 0kts
09-Feb-20 10:04 32.814666 -117.142426 349 416ft 0kts
09-Feb-20 10:06 32.814978 -117.142697 357 416ft 6kts
09-Feb-20 10:07 32.811847 -117.134453 120 418ft 50kts
09-Feb-20 10:08 32.812031 -117.131452 28 422ft 0kts
09-Feb-20 10:09 32.812031 -117.131452 28 422ft 0kts
09-Feb-20 10:10 32.812038 -117.131448 28 422ft 2kts
09-Feb-20 10:11 32.820919 -117.151312 289 900ft 148kts
09-Feb-20 10:12 32.834579 -117.204317 281 2006ft 197kts
09-Feb-20 10:13 32.849388 -117.262831 296 3887ft 162kts
09-Feb-20 10:14 32.873554 -117.307123 293 6231ft 160kts
09-Feb-20 10:15 32.894917 -117.352957 291 8331ft 159kts
09-Feb-20 10:16 32.915918 -117.399515 291 9986ft 173kts
09-Feb-20 10:17 32.940084 -117.453289 292 9996ft 187kts
09-Feb-20 10:18 32.964778 -117.508348 292 9994ft 189kts
09-Feb-20 10:19 32.989723 -117.564098 292 9997ft 192kts
09-Feb-20 10:20 33.015305 -117.621363 292 9999ft 197kts
09-Feb-20 10:21 33.041362 -117.679774 293 10010ft 202kts
09-Feb-20 10:22 33.072014 -117.736811 313 10021ft 211kts
09-Feb-20 10:23 33.116669 -117.783326 317 10017ft 213kts
09-Feb-20 10:24 33.161796 -117.829312 317 10017ft 213kts
09-Feb-20 10:24 33.205602 -117.847074 10 10018ft 216kts
09-Feb-20 10:25 33.270432 -117.831217 11 10020ft 259kts
09-Feb-20 10:27 33.356457 -117.810289 11 10012ft 277kts
09-Feb-20 10:27 33.419630 -117.795126 11 9762ft 271kts
09-Feb-20 10:28 33.490119 -117.778578 11 8351ft 250kts
09-Feb-20 10:30 33.568438 -117.760786 11 6712ft 242kts
09-Feb-20 10:30 33.622515 -117.748935 11 5998ft 222kts
09-Feb-20 10:31 33.678851 -117.736893 11 6000ft 193kts
09-Feb-20 10:32 33.730079 -117.725356 15 5891ft 188kts
09-Feb-20 10:33 33.784979 -117.707766 16 5016ft 208kts
09-Feb-20 10:34 33.838024 -117.690808 16 5002ft 187kts
09-Feb-20 10:35 33.887145 -117.675178 16 5003ft 179kts
09-Feb-20 10:36 33.934352 -117.671908 311 4782ft 191kts
09-Feb-20 10:37 33.910268 -117.721763 201 3801ft 209kts
09-Feb-20 10:38 33.864353 -117.749021 205 3013ft 157kts
09-Feb-20 10:39 33.830699 -117.770381 204 2998ft 125kts
09-Feb-20 10:40 33.800261 -117.789730 204 2681ft 126kts
09-Feb-20 10:41 33.769388 -117.809372 204 2029ft 124kts
09-Feb-20 10:42 33.738581 -117.828946 204 1351ft 125kts
09-Feb-20 10:43 33.707333 -117.848784 204 662ft 126kts
09-Feb-20 10:44 33.683695 -117.863825 206 152ft 81kts
09-Feb-20 10:45 33.674318 -117.870883 302 60ft 0kts

Navigation Log

Ident Type
Flight plan parsing failed, navigation log unavailable